Time;durP1;ratioP1;P1;durP2;ratioP2;P2;SDS_P1;SDS_P2;PMS_P1;PMS_P2;Temp;Humidity;BMP_temperature;BMP_pressure;BME280_temperature;BME280_humidity;BME280_pressure;Samples;Min_cycle;Max_cycle;Signal;HPM_P1;HPM_P2
2022/11/26 00:00:53;;;;;;;20.53;15.80;;;;;;;;;;4948940;28;20237;-84
2022/11/26 00:03:19;;;;;;;26.83;16.80;;;;;;;;;;4941744;28;20236;-84
2022/11/26 00:05:47;;;;;;;21.50;16.80;;;;;;;;;;4975839;28;20282;-84
2022/11/26 00:08:19;;;;;;;22.27;17.70;;;;;;;;;;4968073;28;20233;-83
2022/11/26 00:10:45;;;;;;;21.93;16.43;;;;;;;;;;4951547;28;20230;-84
2022/11/26 00:13:16;;;;;;;23.63;16.03;;;;;;;;;;4945354;28;20225;-82
2022/11/26 00:15:43;;;;;;;24.50;17.23;;;;;;;;;;4939328;29;20223;-85
2022/11/26 00:18:12;;;;;;;23.93;16.07;;;;;;;;;;4938886;29;20767;-85
2022/11/26 00:20:45;;;;;;;26.00;17.60;;;;;;;;;;4963473;28;20230;-84
2022/11/26 00:23:21;;;;;;;21.67;16.70;;;;;;;;;;4960394;28;20222;-83
2022/11/26 00:26:00;;;;;;;24.97;17.30;;;;;;;;;;4964646;28;20245;-85
2022/11/26 00:28:35;;;;;;;20.80;16.27;;;;;;;;;;4943467;28;20839;-83
2022/11/26 00:31:05;;;;;;;19.37;16.67;;;;;;;;;;4954644;28;20796;-85
2022/11/26 00:33:31;;;;;;;22.07;16.63;;;;;;;;;;4964829;28;20711;-84
2022/11/26 00:35:58;;;;;;;22.70;18.27;;;;;;;;;;4929993;29;20223;-85
2022/11/26 00:38:24;;;;;;;18.30;16.37;;;;;;;;;;4948948;28;20231;-83
2022/11/26 00:40:52;;;;;;;24.57;17.70;;;;;;;;;;4941127;28;20217;-85
2022/11/26 00:43:19;;;;;;;21.50;17.03;;;;;;;;;;4964399;28;20221;-86
2022/11/26 00:45:46;;;;;;;25.53;18.07;;;;;;;;;;4942432;29;20241;-85
2022/11/26 00:48:13;;;;;;;23.33;17.67;;;;;;;;;;4943998;28;20230;-84
2022/11/26 00:50:41;;;;;;;25.10;19.20;;;;;;;;;;4943501;28;20269;-84
2022/11/26 00:53:11;;;;;;;24.57;17.87;;;;;;;;;;4971497;28;20226;-85
2022/11/26 00:55:43;;;;;;;26.43;17.40;;;;;;;;;;4950669;28;20233;-84
2022/11/26 00:58:24;;;;;;;23.80;17.43;;;;;;;;;;4930894;28;20278;-84
2022/11/26 01:00:49;;;;;;;25.03;17.57;;;;;;;;;;4950009;28;20237;-86
2022/11/26 01:03:15;;;;;;;21.83;17.23;;;;;;;;;;4962936;28;20233;-84
2022/11/26 01:05:42;;;;;;;27.30;18.53;;;;;;;;;;4948499;28;20285;-83
2022/11/26 01:08:33;;;;;;;26.63;18.90;;;;;;;;;;4939020;28;20230;-87
2022/11/26 01:10:59;;;;;;;28.33;19.40;;;;;;;;;;4938866;28;20368;-87
2022/11/26 01:13:25;;;;;;;23.70;17.57;;;;;;;;;;4988305;28;21012;-83
2022/11/26 01:15:50;;;;;;;25.43;19.33;;;;;;;;;;4942562;28;20320;-86
2022/11/26 01:18:19;;;;;;;31.90;20.20;;;;;;;;;;4945016;28;20230;-85
2022/11/26 01:20:44;;;;;;;25.47;18.43;;;;;;;;;;4926592;28;20229;-85
2022/11/26 01:23:12;;;;;;;27.07;20.00;;;;;;;;;;4948328;28;20298;-84
2022/11/26 01:25:40;;;;;;;29.17;20.40;;;;;;;;;;4968913;28;20235;-85
2022/11/26 01:28:13;;;;;;;32.83;19.87;;;;;;;;;;4971158;28;20221;-85
2022/11/26 01:30:38;;;;;;;31.33;19.73;;;;;;;;;;4964294;28;20252;-84
2022/11/26 01:33:07;;;;;;;30.43;20.30;;;;;;;;;;4934940;29;20222;-85
2022/11/26 01:35:35;;;;;;;30.53;20.53;;;;;;;;;;4937395;28;20233;-84
2022/11/26 01:38:01;;;;;;;27.57;20.50;;;;;;;;;;4928965;28;20236;-85
2022/11/26 01:40:54;;;;;;;30.93;20.47;;;;;;;;;;4938398;28;20218;-85
2022/11/26 01:43:25;;;;;;;35.43;21.13;;;;;;;;;;4985378;28;20222;-85
2022/11/26 01:45:53;;;;;;;28.00;20.73;;;;;;;;;;4953996;28;20226;-84
2022/11/26 01:48:22;;;;;;;27.90;19.97;;;;;;;;;;4935910;29;20258;-83
2022/11/26 01:51:14;;;;;;;27.97;19.57;;;;;;;;;;4986960;28;20238;-85
2022/11/26 01:53:59;;;;;;;27.37;19.53;;;;;;;;;;4938247;28;20247;-83
2022/11/26 01:56:30;;;;;;;32.13;20.20;;;;;;;;;;4937241;28;20241;-82
2022/11/26 01:59:00;;;;;;;26.27;18.93;;;;;;;;;;4979453;28;20269;-85
2022/11/26 02:01:28;;;;;;;28.00;19.93;;;;;;;;;;4944161;28;20261;-84
2022/11/26 02:04:19;;;;;;;25.40;19.07;;;;;;;;;;4939001;28;20226;-83
2022/11/26 02:06:46;;;;;;;24.07;18.27;;;;;;;;;;4939054;28;20225;-83
2022/11/26 02:09:14;;;;;;;29.40;18.90;;;;;;;;;;4963028;28;20280;-83
2022/11/26 02:11:42;;;;;;;29.53;19.50;;;;;;;;;;4949764;28;20238;-83
2022/11/26 02:14:13;;;;;;;30.70;20.53;;;;;;;;;;4939677;29;20756;-83
2022/11/26 02:17:01;;;;;;;30.60;19.90;;;;;;;;;;4952844;28;20221;-84
2022/11/26 02:19:36;;;;;;;28.57;19.70;;;;;;;;;;4935003;28;20217;-86
2022/11/26 02:22:39;;;;;;;30.67;21.13;;;;;;;;;;4956067;28;20261;-83
2022/11/26 02:25:26;;;;;;;29.20;20.57;;;;;;;;;;5001235;28;20663;-83
2022/11/26 02:27:59;;;;;;;28.00;21.17;;;;;;;;;;4965322;28;20221;-84
2022/11/26 02:30:25;;;;;;;27.43;21.80;;;;;;;;;;4965444;28;20230;-83
2022/11/26 02:33:10;;;;;;;28.47;20.27;;;;;;;;;;4932717;28;20292;-84
2022/11/26 02:35:46;;;;;;;28.57;20.00;;;;;;;;;;4963625;28;20303;-83
2022/11/26 02:38:18;;;;;;;28.13;21.03;;;;;;;;;;4933648;28;20316;-81
2022/11/26 02:40:46;;;;;;;29.67;21.20;;;;;;;;;;4974242;28;20240;-85
2022/11/26 02:43:14;;;;;;;27.60;20.20;;;;;;;;;;4942285;28;20217;-83
2022/11/26 02:45:41;;;;;;;29.13;20.90;;;;;;;;;;4931556;29;20347;-84
2022/11/26 02:48:10;;;;;;;31.17;20.30;;;;;;;;;;4981146;28;20229;-85
2022/11/26 02:50:45;;;;;;;29.87;20.67;;;;;;;;;;4931864;28;20231;-84
2022/11/26 02:53:10;;;;;;;29.70;20.23;;;;;;;;;;4931782;28;20292;-84
2022/11/26 02:55:45;;;;;;;31.53;20.93;;;;;;;;;;4935991;28;20675;-84
2022/11/26 02:58:11;;;;;;;26.60;20.07;;;;;;;;;;4948337;28;20210;-84
2022/11/26 03:00:40;;;;;;;32.20;21.60;;;;;;;;;;4938473;28;20234;-84
2022/11/26 03:03:15;;;;;;;27.70;20.80;;;;;;;;;;4972493;28;20274;-84
2022/11/26 03:05:41;;;;;;;33.40;20.70;;;;;;;;;;4941972;28;20237;-82
2022/11/26 03:08:07;;;;;;;34.27;21.40;;;;;;;;;;4989463;28;20235;-83
2022/11/26 03:10:32;;;;;;;35.27;21.43;;;;;;;;;;4917498;28;20252;-84
2022/11/26 03:13:00;;;;;;;30.00;21.57;;;;;;;;;;4936529;28;20248;-83
2022/11/26 03:15:29;;;;;;;30.43;21.13;;;;;;;;;;4964103;28;20223;-87
2022/11/26 03:17:57;;;;;;;32.47;21.37;;;;;;;;;;4945452;28;20718;-84
2022/11/26 03:20:25;;;;;;;31.17;21.47;;;;;;;;;;4930180;29;20221;-84
2022/11/26 03:22:55;;;;;;;31.83;21.57;;;;;;;;;;4944690;28;20235;-84
2022/11/26 03:25:23;;;;;;;33.60;21.23;;;;;;;;;;4960623;28;20257;-82
2022/11/26 03:27:48;;;;;;;31.30;21.97;;;;;;;;;;4972517;28;20221;-85
2022/11/26 03:30:16;;;;;;;24.83;20.40;;;;;;;;;;4939941;28;20222;-84
2022/11/26 03:32:42;;;;;;;28.93;21.23;;;;;;;;;;4933914;28;20223;-83
2022/11/26 03:35:08;;;;;;;29.23;20.23;;;;;;;;;;4936913;28;20229;-84
2022/11/26 03:37:35;;;;;;;30.03;21.67;;;;;;;;;;4950141;28;20245;-85
2022/11/26 03:40:01;;;;;;;25.23;20.03;;;;;;;;;;4936865;28;20309;-84
2022/11/26 03:42:30;;;;;;;29.80;19.97;;;;;;;;;;4922316;29;20219;-84
2022/11/26 03:44:55;;;;;;;27.20;19.07;;;;;;;;;;4967837;28;20236;-83
2022/11/26 03:47:23;;;;;;;27.83;18.17;;;;;;;;;;4929036;28;20290;-82
2022/11/26 03:49:51;;;;;;;21.70;16.87;;;;;;;;;;4948200;28;20218;-84
2022/11/26 03:52:16;;;;;;;28.10;17.33;;;;;;;;;;4955162;28;20326;-81
2022/11/26 03:54:42;;;;;;;23.70;16.47;;;;;;;;;;4959957;28;20289;-85
2022/11/26 03:57:07;;;;;;;19.10;15.93;;;;;;;;;;4929587;28;20233;-83
2022/11/26 03:59:35;;;;;;;22.20;15.90;;;;;;;;;;4962785;28;20225;-85
2022/11/26 04:02:03;;;;;;;26.10;15.27;;;;;;;;;;4941456;28;20230;-83
2022/11/26 04:04:29;;;;;;;26.13;14.50;;;;;;;;;;4919386;28;20237;-83
2022/11/26 04:06:55;;;;;;;28.57;14.10;;;;;;;;;;4944949;28;20230;-84
2022/11/26 04:09:21;;;;;;;23.33;13.53;;;;;;;;;;4970376;29;20254;-83
2022/11/26 04:11:46;;;;;;;27.03;14.13;;;;;;;;;;4963233;28;20230;-82
2022/11/26 04:14:14;;;;;;;19.67;13.50;;;;;;;;;;4959707;28;20298;-80
2022/11/26 04:16:40;;;;;;;21.60;13.13;;;;;;;;;;4950143;28;20601;-83
2022/11/26 04:19:07;;;;;;;19.57;13.57;;;;;;;;;;4952986;28;20227;-84
2022/11/26 04:21:33;;;;;;;16.20;13.57;;;;;;;;;;4931738;29;20222;-86
2022/11/26 04:24:01;;;;;;;21.77;13.33;;;;;;;;;;4938079;28;20970;-84
2022/11/26 04:26:26;;;;;;;15.93;13.63;;;;;;;;;;4930135;28;20640;-85
2022/11/26 04:28:52;;;;;;;19.03;14.10;;;;;;;;;;4921656;28;20258;-84
2022/11/26 04:31:17;;;;;;;19.27;14.47;;;;;;;;;;4929160;28;20240;-83
2022/11/26 04:33:43;;;;;;;20.87;14.07;;;;;;;;;;4949036;28;20620;-86
2022/11/26 04:36:11;;;;;;;21.60;14.50;;;;;;;;;;4935835;28;20264;-85
2022/11/26 04:38:36;;;;;;;20.03;14.80;;;;;;;;;;4932517;28;20582;-85
2022/11/26 04:41:02;;;;;;;24.73;14.67;;;;;;;;;;4935789;28;20292;-85
2022/11/26 04:43:28;;;;;;;18.60;13.80;;;;;;;;;;4939227;23;20796;-78
2022/11/26 04:45:53;;;;;;;22.67;14.67;;;;;;;;;;4930814;29;20238;-78
2022/11/26 04:48:26;;;;;;;17.90;13.03;;;;;;;;;;4930375;28;20277;-76
2022/11/26 04:50:56;;;;;;;21.93;12.43;;;;;;;;;;4922666;29;20234;-77
2022/11/26 04:53:24;;;;;;;22.73;13.27;;;;;;;;;;4921297;29;20220;-77
2022/11/26 04:55:50;;;;;;;19.73;13.07;;;;;;;;;;4906708;29;20367;-78
2022/11/26 04:58:16;;;;;;;20.17;12.97;;;;;;;;;;4905512;29;20702;-77
2022/11/26 05:00:42;;;;;;;17.17;12.53;;;;;;;;;;4919192;29;20241;-78
2022/11/26 05:03:07;;;;;;;18.33;13.07;;;;;;;;;;4921119;29;20228;-78
2022/11/26 05:05:33;;;;;;;24.60;13.77;;;;;;;;;;4930641;28;20234;-77
2022/11/26 05:07:58;;;;;;;22.70;14.70;;;;;;;;;;4902494;29;20612;-77
2022/11/26 05:10:26;;;;;;;26.53;13.70;;;;;;;;;;4885132;29;20239;-78
2022/11/26 05:12:54;;;;;;;24.47;13.90;;;;;;;;;;4914134;29;20248;-78
2022/11/26 05:15:22;;;;;;;24.27;15.40;;;;;;;;;;4935822;28;20228;-77
2022/11/26 05:17:47;;;;;;;32.83;13.70;;;;;;;;;;4890054;29;20231;-77
2022/11/26 05:20:13;;;;;;;30.53;15.40;;;;;;;;;;4941501;28;20226;-77
2022/11/26 05:22:43;;;;;;;18.33;14.57;;;;;;;;;;4934646;28;20223;-76
2022/11/26 05:25:11;;;;;;;21.93;14.63;;;;;;;;;;4935394;28;20274;-77
2022/11/26 05:27:39;;;;;;;33.33;14.23;;;;;;;;;;4902311;29;20220;-77
2022/11/26 05:30:07;;;;;;;25.87;15.37;;;;;;;;;;4916912;29;20254;-78
2022/11/26 05:32:33;;;;;;;20.53;13.83;;;;;;;;;;4914358;29;20212;-78
2022/11/26 05:35:03;;;;;;;18.33;14.23;;;;;;;;;;4922577;29;20243;-77
2022/11/26 05:37:29;;;;;;;27.53;13.90;;;;;;;;;;4913092;29;20602;-77
2022/11/26 05:39:54;;;;;;;17.73;13.77;;;;;;;;;;4934562;28;20223;-76
2022/11/26 05:42:22;;;;;;;27.10;13.67;;;;;;;;;;4937070;28;20274;-78
2022/11/26 05:44:50;;;;;;;21.83;13.57;;;;;;;;;;4935083;28;20230;-78
2022/11/26 05:47:17;;;;;;;24.57;13.07;;;;;;;;;;4912151;29;20228;-78
2022/11/26 05:49:46;;;;;;;20.43;13.17;;;;;;;;;;4918150;29;20228;-77
2022/11/26 05:52:14;;;;;;;20.20;12.83;;;;;;;;;;4918683;28;20712;-78
2022/11/26 05:54:45;;;;;;;28.70;12.23;;;;;;;;;;4915786;29;20238;-79
2022/11/26 05:57:15;;;;;;;16.90;11.97;;;;;;;;;;4902854;29;20299;-78
2022/11/26 05:59:43;;;;;;;19.57;11.97;;;;;;;;;;4929887;28;20701;-77
2022/11/26 06:02:08;;;;;;;20.20;13.07;;;;;;;;;;4922971;29;20227;-77
2022/11/26 06:04:36;;;;;;;15.33;12.90;;;;;;;;;;4936859;28;20229;-78
2022/11/26 06:07:02;;;;;;;26.20;12.03;;;;;;;;;;4928295;28;20227;-77
2022/11/26 06:09:27;;;;;;;21.63;12.43;;;;;;;;;;4921829;29;20281;-78
2022/11/26 06:11:53;;;;;;;18.80;11.93;;;;;;;;;;4920175;29;20228;-78
2022/11/26 06:14:18;;;;;;;24.60;12.17;;;;;;;;;;4903051;29;20241;-78
2022/11/26 06:16:44;;;;;;;13.00;11.70;;;;;;;;;;4936166;28;20222;-78
2022/11/26 06:19:12;;;;;;;29.13;11.10;;;;;;;;;;4919996;29;20230;-79
2022/11/26 06:21:40;;;;;;;26.33;12.17;;;;;;;;;;4887162;29;20598;-79
2022/11/26 06:24:06;;;;;;;28.13;12.07;;;;;;;;;;4930295;28;20227;-78
2022/11/26 06:26:33;;;;;;;19.43;11.83;;;;;;;;;;4928412;28;20231;-77
2022/11/26 06:29:02;;;;;;;23.43;11.40;;;;;;;;;;4912651;29;20766;-78
2022/11/26 06:31:27;;;;;;;16.57;12.00;;;;;;;;;;4917688;29;21152;-78
2022/11/26 06:33:55;;;;;;;17.83;11.77;;;;;;;;;;4920300;28;20224;-78
2022/11/26 06:36:23;;;;;;;12.87;11.57;;;;;;;;;;4901372;29;20279;-78
2022/11/26 06:38:51;;;;;;;20.50;11.13;;;;;;;;;;4936845;28;20705;-78
2022/11/26 06:41:19;;;;;;;23.20;12.47;;;;;;;;;;4905732;29;20224;-77
2022/11/26 06:43:49;;;;;;;22.73;13.03;;;;;;;;;;4918855;29;20227;-78
2022/11/26 06:46:17;;;;;;;18.10;14.20;;;;;;;;;;4932944;28;20313;-77
2022/11/26 06:48:47;;;;;;;20.90;12.27;;;;;;;;;;4920232;29;20668;-78
2022/11/26 06:51:15;;;;;;;25.27;13.07;;;;;;;;;;4937007;28;20243;-77
2022/11/26 06:53:43;;;;;;;22.93;12.13;;;;;;;;;;4927433;28;20227;-78
2022/11/26 06:56:12;;;;;;;29.93;11.83;;;;;;;;;;4918106;29;20228;-78
2022/11/26 06:58:38;;;;;;;27.43;13.53;;;;;;;;;;4929223;28;20671;-78
2022/11/26 07:01:13;;;;;;;21.37;12.17;;;;;;;;;;4896692;29;20227;-78
2022/11/26 07:03:39;;;;;;;26.80;14.03;;;;;;;;;;4914657;29;20224;-78
2022/11/26 07:06:14;;;;;;;32.87;14.50;;;;;;;;;;4909303;29;20656;-79
2022/11/26 07:08:39;;;;;;;19.00;12.30;;;;;;;;;;4906790;29;20649;-77
2022/11/26 07:11:05;;;;;;;16.47;12.13;;;;;;;;;;4905280;29;20239;-80
2022/11/26 07:13:30;;;;;;;13.57;12.03;;;;;;;;;;4922359;28;20226;-79
2022/11/26 07:16:04;;;;;;;19.83;13.17;;;;;;;;;;4924739;29;20230;-78
2022/11/26 07:18:33;;;;;;;24.43;13.47;;;;;;;;;;4922957;29;20244;-79
2022/11/26 07:21:09;;;;;;;20.73;13.17;;;;;;;;;;4929230;29;20607;-79
2022/11/26 07:23:37;;;;;;;20.63;14.37;;;;;;;;;;4921156;29;20241;-79
2022/11/26 07:26:03;;;;;;;19.13;13.77;;;;;;;;;;4917587;29;20845;-77
2022/11/26 07:28:28;;;;;;;17.90;14.30;;;;;;;;;;4931321;28;20230;-78
2022/11/26 07:30:54;;;;;;;18.13;15.13;;;;;;;;;;4909961;29;20239;-79
2022/11/26 07:33:20;;;;;;;17.10;14.53;;;;;;;;;;4899595;29;20267;-79
2022/11/26 07:35:45;;;;;;;29.03;14.37;;;;;;;;;;4915262;29;20235;-78
2022/11/26 07:38:13;;;;;;;17.30;14.27;;;;;;;;;;4923160;29;20308;-77
2022/11/26 07:40:41;;;;;;;21.57;15.57;;;;;;;;;;4902015;29;20283;-78
2022/11/26 07:43:06;;;;;;;21.27;15.67;;;;;;;;;;4938353;28;20226;-78
2022/11/26 07:45:36;;;;;;;21.93;15.23;;;;;;;;;;4913197;29;20223;-78
2022/11/26 07:48:02;;;;;;;18.57;14.70;;;;;;;;;;4922819;29;20712;-78
2022/11/26 07:50:32;;;;;;;19.53;14.80;;;;;;;;;;4929043;28;20231;-79
2022/11/26 07:52:58;;;;;;;19.37;14.27;;;;;;;;;;4918875;29;20237;-77
2022/11/26 07:55:26;;;;;;;19.27;15.20;;;;;;;;;;4877234;29;20233;-79
2022/11/26 07:57:54;;;;;;;21.57;14.43;;;;;;;;;;4920001;29;20371;-79
2022/11/26 08:00:21;;;;;;;19.60;14.27;;;;;;;;;;4901377;29;20256;-78
2022/11/26 08:02:47;;;;;;;26.00;15.53;;;;;;;;;;4932890;28;20224;-77
2022/11/26 08:05:13;;;;;;;28.70;15.30;;;;;;;;;;4931821;28;20231;-75
2022/11/26 08:07:41;;;;;;;19.67;14.80;;;;;;;;;;4897957;29;20227;-78
2022/11/26 08:10:07;;;;;;;23.27;15.53;;;;;;;;;;4918546;28;20227;-77
2022/11/26 08:12:32;;;;;;;19.33;14.30;;;;;;;;;;4921140;29;20299;-78
2022/11/26 08:15:00;;;;;;;18.20;15.47;;;;;;;;;;4937202;28;20337;-77
2022/11/26 08:17:25;;;;;;;15.90;13.60;;;;;;;;;;4925659;28;20232;-78
2022/11/26 08:19:51;;;;;;;17.27;14.50;;;;;;;;;;4929169;28;20273;-77
2022/11/26 08:22:19;;;;;;;18.10;15.07;;;;;;;;;;4883463;29;20670;-77
2022/11/26 08:24:45;;;;;;;25.63;15.53;;;;;;;;;;4914483;29;20220;-78
2022/11/26 08:27:11;;;;;;;15.53;13.97;;;;;;;;;;4903305;29;20637;-79
2022/11/26 08:29:39;;;;;;;16.77;15.07;;;;;;;;;;4928986;29;20793;-78
2022/11/26 08:32:04;;;;;;;16.47;14.73;;;;;;;;;;4938540;28;20235;-76
2022/11/26 08:34:30;;;;;;;16.50;14.77;;;;;;;;;;4936780;28;20248;-75
2022/11/26 08:36:55;;;;;;;23.20;20.30;;;;;;;;;;4913537;29;20808;-75
2022/11/26 08:39:21;;;;;;;19.57;17.13;;;;;;;;;;4935206;28;20772;-77
2022/11/26 08:41:47;;;;;;;21.10;17.30;;;;;;;;;;4917392;29;20225;-76
2022/11/26 08:44:12;;;;;;;20.20;16.27;;;;;;;;;;4921229;28;20239;-74
2022/11/26 08:46:39;;;;;;;18.77;16.40;;;;;;;;;;4937328;28;20230;-77
2022/11/26 08:49:05;;;;;;;18.57;16.30;;;;;;;;;;4944221;28;20262;-79
2022/11/26 08:51:33;;;;;;;19.63;16.23;;;;;;;;;;4928083;28;20234;-78
2022/11/26 08:54:29;;;;;;;19.87;16.57;;;;;;;;;;4928214;29;20694;-79
2022/11/26 08:57:00;;;;;;;22.23;16.73;;;;;;;;;;4882641;29;20226;-77
2022/11/26 08:59:26;;;;;;;21.10;16.93;;;;;;;;;;4942419;28;20230;-76
2022/11/26 09:01:56;;;;;;;21.07;15.40;;;;;;;;;;4939875;28;20517;-76
2022/11/26 09:04:22;;;;;;;17.90;15.07;;;;;;;;;;4921095;29;20233;-76
2022/11/26 09:06:49;;;;;;;22.40;15.70;;;;;;;;;;4897981;29;20239;-76
2022/11/26 09:09:17;;;;;;;16.43;14.73;;;;;;;;;;4929976;28;20223;-76
2022/11/26 09:11:56;;;;;;;18.57;15.00;;;;;;;;;;4906926;29;20255;-76
2022/11/26 09:14:26;;;;;;;17.37;15.03;;;;;;;;;;4924622;29;20223;-76
2022/11/26 09:16:55;;;;;;;22.37;15.43;;;;;;;;;;4928584;29;20246;-75
2022/11/26 09:19:23;;;;;;;19.70;15.03;;;;;;;;;;4938232;28;20327;-76
2022/11/26 09:21:51;;;;;;;15.40;13.50;;;;;;;;;;4911761;29;20242;-77
2022/11/26 09:24:20;;;;;;;16.83;14.23;;;;;;;;;;4920139;29;20231;-77
2022/11/26 09:26:48;;;;;;;19.47;14.40;;;;;;;;;;4924181;28;20317;-77
2022/11/26 09:29:20;;;;;;;16.97;14.07;;;;;;;;;;4884155;29;20597;-74
2022/11/26 09:31:46;;;;;;;15.17;13.57;;;;;;;;;;4935423;28;20249;-77
2022/11/26 09:34:14;;;;;;;23.70;14.00;;;;;;;;;;4907989;29;20394;-77
2022/11/26 09:36:40;;;;;;;19.70;14.93;;;;;;;;;;4915888;29;20264;-77
2022/11/26 09:39:06;;;;;;;19.77;15.43;;;;;;;;;;4930887;28;20227;-77
2022/11/26 09:41:31;;;;;;;20.47;15.47;;;;;;;;;;4916419;29;20220;-75
2022/11/26 09:44:00;;;;;;;23.00;16.70;;;;;;;;;;4920243;29;20240;-75
2022/11/26 09:47:07;;;;;;;19.17;15.37;;;;;;;;;;4914745;29;20240;-75
2022/11/26 09:49:53;;;;;;;16.27;14.67;;;;;;;;;;4928873;29;20263;-74
2022/11/26 09:52:20;;;;;;;21.80;15.53;;;;;;;;;;4913962;29;20302;-76
2022/11/26 09:54:49;;;;;;;21.57;15.17;;;;;;;;;;4915228;29;20858;-77
2022/11/26 09:57:25;;;;;;;24.33;17.00;;;;;;;;;;4927879;28;20223;-75
2022/11/26 09:59:51;;;;;;;32.07;19.30;;;;;;;;;;4929845;29;20215;-76
2022/11/26 10:02:19;;;;;;;23.10;19.67;;;;;;;;;;4901387;29;20219;-75
2022/11/26 10:04:49;;;;;;;20.27;17.30;;;;;;;;;;4904604;29;20223;-75
2022/11/26 10:07:38;;;;;;;18.73;16.53;;;;;;;;;;4935144;28;20241;-76
2022/11/26 10:10:17;;;;;;;18.17;16.20;;;;;;;;;;4914456;29;20231;-76
2022/11/26 10:13:15;;;;;;;19.60;16.30;;;;;;;;;;4904782;29;20732;-76
2022/11/26 10:16:13;;;;;;;22.83;14.77;;;;;;;;;;4902455;29;20241;-75
2022/11/26 10:18:49;;;;;;;19.07;14.43;;;;;;;;;;4888182;29;20231;-75
2022/11/26 10:21:24;;;;;;;19.53;16.40;;;;;;;;;;4935761;28;20222;-76
2022/11/26 10:23:50;;;;;;;18.20;16.30;;;;;;;;;;4918183;29;21043;-77
2022/11/26 10:26:33;;;;;;;21.47;16.20;;;;;;;;;;4936169;28;20223;-75
2022/11/26 10:29:12;;;;;;;22.77;17.43;;;;;;;;;;4924019;28;20675;-77
2022/11/26 10:31:40;;;;;;;20.90;17.50;;;;;;;;;;4926965;29;20231;-76
2022/11/26 10:34:11;;;;;;;21.17;16.53;;;;;;;;;;4901329;29;20615;-77
2022/11/26 10:36:40;;;;;;;18.50;16.60;;;;;;;;;;4896912;29;20232;-77
2022/11/26 10:39:11;;;;;;;19.57;17.33;;;;;;;;;;4917851;29;20228;-77
2022/11/26 10:41:37;;;;;;;17.53;15.77;;;;;;;;;;4926868;28;20261;-76
2022/11/26 10:44:28;;;;;;;19.20;17.17;;;;;;;;;;4921592;29;20232;-76
2022/11/26 10:46:57;;;;;;;16.63;14.93;;;;;;;;;;4931121;28;20230;-76
2022/11/26 10:49:27;;;;;;;17.67;14.67;;;;;;;;;;4933597;28;20735;-76
2022/11/26 10:51:57;;;;;;;21.13;15.40;;;;;;;;;;4905153;29;20294;-74
2022/11/26 10:54:27;;;;;;;16.77;14.63;;;;;;;;;;4893239;28;20229;-76
2022/11/26 10:56:53;;;;;;;17.23;15.17;;;;;;;;;;4918044;29;20231;-75
2022/11/26 10:59:27;;;;;;;17.23;15.47;;;;;;;;;;4875494;29;20605;-77
2022/11/26 11:01:56;;;;;;;15.73;13.73;;;;;;;;;;4929711;28;20227;-75
2022/11/26 11:04:22;;;;;;;15.63;14.10;;;;;;;;;;4942529;28;20241;-75
2022/11/26 11:06:48;;;;;;;14.77;13.23;;;;;;;;;;4927037;29;20321;-76
2022/11/26 11:09:35;;;;;;;14.30;12.93;;;;;;;;;;4946457;28;20302;-76
2022/11/26 11:12:10;;;;;;;14.10;12.70;;;;;;;;;;4928474;29;20223;-76
2022/11/26 11:14:39;;;;;;;14.63;13.13;;;;;;;;;;4932724;28;20231;-76
2022/11/26 11:17:07;;;;;;;18.10;12.70;;;;;;;;;;4897852;29;20218;-74
2022/11/26 11:19:35;;;;;;;14.27;12.77;;;;;;;;;;4924497;29;20693;-75
2022/11/26 11:22:03;;;;;;;15.53;12.20;;;;;;;;;;4922433;29;20231;-76
2022/11/26 11:24:31;;;;;;;14.60;13.07;;;;;;;;;;4922018;29;20223;-76
2022/11/26 11:26:59;;;;;;;14.53;12.97;;;;;;;;;;4922242;28;20227;-76
2022/11/26 11:29:35;;;;;;;16.77;13.90;;;;;;;;;;4904990;29;20690;-76
2022/11/26 11:32:03;;;;;;;15.63;13.07;;;;;;;;;;4933951;28;20713;-76
2022/11/26 11:34:28;;;;;;;15.67;14.07;;;;;;;;;;4920669;29;20709;-76
2022/11/26 11:37:15;;;;;;;15.17;13.57;;;;;;;;;;4942364;28;20308;-75
2022/11/26 11:39:45;;;;;;;16.90;14.00;;;;;;;;;;4920017;29;20318;-75
2022/11/26 11:42:27;;;;;;;18.10;13.97;;;;;;;;;;4916499;29;20216;-76
2022/11/26 11:44:52;;;;;;;14.83;13.40;;;;;;;;;;4933310;28;20231;-75
2022/11/26 11:47:33;;;;;;;22.83;14.80;;;;;;;;;;4933591;28;20717;-76
2022/11/26 11:50:23;;;;;;;16.53;14.67;;;;;;;;;;4916952;29;20246;-75
2022/11/26 11:53:13;;;;;;;19.50;14.03;;;;;;;;;;4920633;28;20920;-75
2022/11/26 11:56:12;;;;;;;14.90;13.33;;;;;;;;;;4924858;28;20236;-75
2022/11/26 11:58:43;;;;;;;15.73;12.80;;;;;;;;;;4925739;29;20610;-74
2022/11/26 12:01:45;;;;;;;15.60;13.83;;;;;;;;;;4920295;28;20255;-74
2022/11/26 12:04:18;;;;;;;18.47;13.77;;;;;;;;;;4926373;28;20263;-75
2022/11/26 12:06:55;;;;;;;15.27;13.50;;;;;;;;;;4921919;29;20266;-75
2022/11/26 12:09:37;;;;;;;14.63;12.87;;;;;;;;;;4918362;29;20237;-76
2022/11/26 12:12:09;;;;;;;17.73;13.97;;;;;;;;;;4937826;28;20318;-73
2022/11/26 12:14:40;;;;;;;15.07;13.47;;;;;;;;;;4905377;29;20677;-73
2022/11/26 12:17:13;;;;;;;16.27;13.03;;;;;;;;;;4907226;29;20236;-73
2022/11/26 12:19:54;;;;;;;16.43;12.97;;;;;;;;;;4907082;29;20228;-76
2022/11/26 12:22:30;;;;;;;15.23;12.87;;;;;;;;;;4920590;28;20701;-74
2022/11/26 12:25:08;;;;;;;14.03;12.53;;;;;;;;;;4895088;29;20231;-74
2022/11/26 12:27:40;;;;;;;13.80;12.00;;;;;;;;;;4940598;28;20246;-74
2022/11/26 12:30:22;;;;;;;14.27;12.47;;;;;;;;;;4937746;28;20239;-74
2022/11/26 12:32:47;;;;;;;18.70;14.80;;;;;;;;;;4935743;28;20242;-75
2022/11/26 12:35:18;;;;;;;17.87;14.13;;;;;;;;;;4920766;29;20224;-73
2022/11/26 12:37:46;;;;;;;19.60;14.60;;;;;;;;;;4918131;29;20660;-73
2022/11/26 12:40:28;;;;;;;17.77;14.40;;;;;;;;;;4919949;28;20305;-72
2022/11/26 12:43:14;;;;;;;19.67;14.53;;;;;;;;;;4919495;29;20222;-74
2022/11/26 12:46:00;;;;;;;19.23;14.37;;;;;;;;;;4933712;29;20236;-73
2022/11/26 12:48:41;;;;;;;17.93;14.87;;;;;;;;;;4896769;29;20263;-73
2022/11/26 12:51:24;;;;;;;19.47;14.70;;;;;;;;;;4934101;29;20247;-73
2022/11/26 12:54:04;;;;;;;18.67;15.77;;;;;;;;;;4918109;29;20826;-72
2022/11/26 12:56:34;;;;;;;18.37;14.20;;;;;;;;;;4912631;29;20231;-79
2022/11/26 12:59:32;;;;;;;18.13;16.03;;;;;;;;;;4927698;29;20246;-78
2022/11/26 13:01:57;;;;;;;22.97;16.17;;;;;;;;;;4899445;29;20318;-73
2022/11/26 13:04:25;;;;;;;18.97;15.93;;;;;;;;;;4916494;29;20238;-75
2022/11/26 13:06:50;;;;;;;22.87;17.57;;;;;;;;;;4933940;28;20293;-76
2022/11/26 13:09:28;;;;;;;21.03;16.00;;;;;;;;;;4923693;28;20228;-73
2022/11/26 13:11:53;;;;;;;20.60;16.97;;;;;;;;;;4936526;28;20605;-73
2022/11/26 13:14:45;;;;;;;23.67;17.40;;;;;;;;;;4920604;29;20216;-75
2022/11/26 13:17:17;;;;;;;23.13;16.60;;;;;;;;;;4928926;28;20237;-72
2022/11/26 13:19:48;;;;;;;22.03;18.70;;;;;;;;;;4917167;29;20377;-75
2022/11/26 13:22:14;;;;;;;23.97;18.23;;;;;;;;;;4918047;29;20614;-74
2022/11/26 13:25:16;;;;;;;26.70;20.47;;;;;;;;;;4929053;28;20227;-75
2022/11/26 13:28:04;;;;;;;26.40;18.93;;;;;;;;;;4913560;29;20694;-76
2022/11/26 13:30:54;;;;;;;26.80;20.97;;;;;;;;;;4908629;29;20239;-73
2022/11/26 13:33:38;;;;;;;28.73;19.57;;;;;;;;;;4918840;29;20228;-73
2022/11/26 13:36:11;;;;;;;27.83;20.43;;;;;;;;;;4921723;29;20314;-76
2022/11/26 13:39:28;;;;;;;27.27;18.53;;;;;;;;;;4915908;29;20919;-75
2022/11/26 13:42:15;;;;;;;24.70;18.40;;;;;;;;;;4893240;29;20323;-75
2022/11/26 13:45:19;;;;;;;30.57;18.33;;;;;;;;;;4932159;29;20251;-74
2022/11/26 13:47:52;;;;;;;26.00;19.57;;;;;;;;;;4908007;29;20239;-73
2022/11/26 13:50:36;;;;;;;24.33;18.47;;;;;;;;;;4922235;28;20219;-73
2022/11/26 13:53:05;;;;;;;26.37;18.60;;;;;;;;;;4932024;28;20259;-75
2022/11/26 13:55:41;;;;;;;26.50;18.07;;;;;;;;;;4924690;29;20709;-74
2022/11/26 13:58:13;;;;;;;24.97;18.60;;;;;;;;;;4929303;28;20282;-73
2022/11/26 14:00:44;;;;;;;24.30;20.00;;;;;;;;;;4923714;29;20728;-74
2022/11/26 14:03:43;;;;;;;28.80;20.80;;;;;;;;;;4918127;29;20216;-75
2022/11/26 14:06:13;;;;;;;27.10;19.33;;;;;;;;;;4919707;29;20223;-73
2022/11/26 14:08:43;;;;;;;29.53;20.50;;;;;;;;;;4934290;28;20247;-73
2022/11/26 14:11:12;;;;;;;28.60;20.03;;;;;;;;;;4917343;28;20275;-72
2022/11/26 14:13:39;;;;;;;32.63;20.57;;;;;;;;;;4932289;28;20209;-73
2022/11/26 14:16:10;;;;;;;29.23;20.37;;;;;;;;;;4902050;29;20236;-73
2022/11/26 14:18:49;;;;;;;27.20;21.27;;;;;;;;;;4920006;29;20780;-74
2022/11/26 14:21:23;;;;;;;30.67;21.30;;;;;;;;;;4914639;29;20228;-74
2022/11/26 14:23:52;;;;;;;30.07;21.80;;;;;;;;;;4922148;29;20223;-75
2022/11/26 14:26:30;;;;;;;27.83;20.60;;;;;;;;;;4917422;29;20224;-73
2022/11/26 14:29:10;;;;;;;31.30;21.77;;;;;;;;;;4919455;29;20231;-74
2022/11/26 14:31:46;;;;;;;32.73;22.67;;;;;;;;;;4938390;28;20234;-73
2022/11/26 14:34:22;;;;;;;31.30;20.30;;;;;;;;;;4899018;29;20220;-74
2022/11/26 14:36:58;;;;;;;35.57;22.07;;;;;;;;;;4932420;28;20701;-73
2022/11/26 14:39:26;;;;;;;31.70;22.03;;;;;;;;;;4919885;29;20216;-73